Time;durP1;ratioP1;P1;durP2;ratioP2;P2;SDS_P1;SDS_P2;PMS_P1;PMS_P2;Temp;Humidity;BMP_temperature;BMP_pressure;BME280_temperature;BME280_humidity;BME280_pressure;Samples;Min_cycle;Max_cycle;Signal;HPM_P1;HPM_P2
2022/04/15 00:02:02;;;;;;;3.70;3.40;;;;;;;11.44;83.90;99210.13;5055529;28;20196;-56
2022/04/15 00:04:30;;;;;;;3.90;2.70;;;;;;;11.48;84.00;99208.06;5073258;28;20204;-56
2022/04/15 00:06:58;;;;;;;5.63;2.60;;;;;;;11.65;81.69;99204.72;5073331;28;20270;-56
2022/04/15 00:09:25;;;;;;;7.63;3.07;;;;;;;11.76;81.64;99208.09;5073257;28;20188;-56
2022/04/15 00:11:53;;;;;;;5.53;2.80;;;;;;;11.85;81.02;99207.22;5072593;28;20199;-56
2022/04/15 00:14:21;;;;;;;4.70;3.00;;;;;;;11.88;80.20;99199.09;5072905;28;20216;-56
2022/04/15 00:16:49;;;;;;;5.53;2.87;;;;;;;11.91;81.51;99209.25;5073145;28;20220;-56
2022/04/15 00:19:16;;;;;;;3.70;3.07;;;;;;;11.93;81.54;99215.16;5072987;28;20181;-56
2022/04/15 00:21:43;;;;;;;5.70;3.13;;;;;;;11.94;81.15;99206.34;5072223;28;20187;-56
2022/04/15 00:24:10;;;;;;;5.33;3.30;;;;;;;11.90;80.18;99199.75;5072836;28;20690;-56
2022/04/15 00:26:37;;;;;;;6.90;2.97;;;;;;;11.95;81.70;99196.72;5072895;28;20386;-56
2022/04/15 00:29:06;;;;;;;4.73;2.90;;;;;;;11.88;83.68;99193.84;5072697;28;20676;-56
2022/04/15 00:31:34;;;;;;;3.33;2.97;;;;;;;11.84;83.61;99200.34;5072140;28;20179;-56
2022/04/15 00:34:03;;;;;;;5.70;3.20;;;;;;;11.74;83.71;99195.16;5072741;28;20240;-56
2022/04/15 00:36:30;;;;;;;5.73;3.40;;;;;;;11.73;83.82;99198.75;5072833;28;20200;-56
2022/04/15 00:38:57;;;;;;;7.17;3.30;;;;;;;11.65;84.33;99196.88;5072693;28;20532;-56
2022/04/15 00:41:24;;;;;;;7.57;2.80;;;;;;;11.60;85.50;99198.25;5071760;28;20195;-56
2022/04/15 00:43:54;;;;;;;5.40;2.87;;;;;;;11.46;85.13;99202.16;5072528;28;20191;-56
2022/04/15 00:46:21;;;;;;;6.40;3.20;;;;;;;11.38;84.86;99195.00;5072512;28;20219;-56
2022/04/15 00:48:48;;;;;;;7.30;3.17;;;;;;;11.30;85.77;99200.97;5072437;28;20553;-56
2022/04/15 00:51:16;;;;;;;6.30;2.87;;;;;;;11.16;84.80;99199.59;5071640;28;20558;-56
2022/04/15 00:53:46;;;;;;;6.07;3.37;;;;;;;11.12;85.86;99202.63;5072253;28;20190;-56
2022/04/15 00:56:14;;;;;;;4.83;2.70;;;;;;;11.01;85.85;99194.00;5072279;28;20528;-56
2022/04/15 00:58:42;;;;;;;4.57;2.60;;;;;;;10.96;86.00;99198.81;5072309;28;20183;-56
2022/04/15 01:01:09;;;;;;;3.97;3.10;;;;;;;10.92;85.65;99200.88;5071453;28;20298;-56
2022/04/15 01:03:37;;;;;;;3.30;2.87;;;;;;;10.84;87.75;99202.53;5072244;28;20658;-56
2022/04/15 01:06:07;;;;;;;5.43;2.93;;;;;;;10.83;87.41;99206.94;5072155;28;20204;-56
2022/04/15 01:08:39;;;;;;;5.33;3.47;;;;;;;10.72;87.83;99200.03;5072074;28;20206;-56
2022/04/15 01:11:09;;;;;;;5.73;2.97;;;;;;;10.67;87.25;99206.66;5071344;28;20215;-56
2022/04/15 01:13:38;;;;;;;6.13;3.30;;;;;;;10.63;87.26;99206.94;5072081;28;20257;-56
2022/04/15 01:16:07;;;;;;;4.23;2.87;;;;;;;10.53;87.93;99211.31;5072158;28;20183;-56
2022/04/15 01:18:33;;;;;;;8.20;3.40;;;;;;;10.45;87.90;99204.19;5072043;28;20277;-56
2022/04/15 01:21:00;;;;;;;5.53;3.20;;;;;;;10.41;88.02;99212.41;5071083;28;20650;-55
2022/04/15 01:23:29;;;;;;;8.13;3.37;;;;;;;10.32;87.80;99216.63;5072188;28;20247;-56
2022/04/15 01:25:56;;;;;;;4.43;3.33;;;;;;;10.30;88.38;99215.94;5071892;28;20290;-56
2022/04/15 01:28:23;;;;;;;9.00;3.50;;;;;;;10.25;89.03;99215.50;5071968;28;20655;-56
2022/04/15 01:30:51;;;;;;;7.77;3.60;;;;;;;10.19;88.72;99217.69;5071094;28;20189;-56
2022/04/15 01:33:18;;;;;;;6.67;3.30;;;;;;;10.15;88.86;99224.13;5072188;28;20190;-56
2022/04/15 01:35:45;;;;;;;6.23;3.47;;;;;;;10.14;89.01;99225.09;5071773;28;20570;-56
2022/04/15 01:38:14;;;;;;;5.00;3.50;;;;;;;10.06;89.58;99222.31;5072119;28;20216;-56
2022/04/15 01:40:44;;;;;;;7.20;3.60;;;;;;;10.01;89.26;99232.31;5071141;28;20194;-56
2022/04/15 01:43:11;;;;;;;4.43;3.43;;;;;;;10.01;90.23;99232.31;5071810;28;20261;-56
2022/04/15 01:45:38;;;;;;;7.17;3.30;;;;;;;9.91;90.01;99227.09;5071806;28;20231;-56
2022/04/15 01:48:05;;;;;;;4.87;3.30;;;;;;;9.97;90.71;99230.94;5071680;28;20192;-56
2022/04/15 01:50:32;;;;;;;4.30;3.27;;;;;;;9.92;90.96;99233.13;5070993;28;20259;-56
2022/04/15 01:52:59;;;;;;;6.40;3.57;;;;;;;9.93;91.06;99225.19;5071716;28;20706;-56
2022/04/15 01:55:26;;;;;;;7.27;3.30;;;;;;;9.95;90.04;99240.69;5097384;22;20224;-55
2022/04/15 01:57:54;;;;;;;7.33;3.43;;;;;;;9.90;90.40;99231.47;5091825;28;20192;-55
2022/04/15 02:00:22;;;;;;;4.93;3.20;;;;;;;9.95;90.28;99230.25;5089661;28;20200;-55
2022/04/15 02:02:49;;;;;;;8.37;3.80;;;;;;;9.89;91.50;99236.81;5091850;28;20186;-55
2022/04/15 02:05:16;;;;;;;5.83;3.60;;;;;;;9.85;91.52;99231.03;5091907;28;20205;-55
2022/04/15 02:07:43;;;;;;;4.30;3.20;;;;;;;9.74;90.70;99233.72;5090583;28;20192;-55
2022/04/15 02:10:11;;;;;;;3.93;3.17;;;;;;;9.69;90.42;99228.91;5091030;28;20676;-54
2022/04/15 02:12:37;;;;;;;6.97;3.80;;;;;;;9.69;91.98;99233.28;5091656;28;20184;-55
2022/04/15 02:15:07;;;;;;;4.53;3.50;;;;;;;9.64;92.44;99235.47;5091474;28;20573;-55
2022/04/15 02:17:34;;;;;;;6.27;3.60;;;;;;;9.59;92.54;99236.66;5091749;28;20182;-55
2022/04/15 02:20:01;;;;;;;5.23;3.70;;;;;;;9.53;92.43;99234.59;5090933;28;20181;-55
2022/04/15 02:22:27;;;;;;;4.93;3.40;;;;;;;9.58;93.20;99235.03;5094958;28;20197;-55
2022/04/15 02:24:54;;;;;;;7.40;3.87;;;;;;;9.49;92.46;99235.81;5095475;28;20220;-54
2022/04/15 02:27:21;;;;;;;10.30;3.90;;;;;;;9.52;94.92;99234.72;5095286;28;20204;-55
2022/04/15 02:29:48;;;;;;;4.70;3.60;;;;;;;9.46;93.81;99243.91;5094625;28;20193;-55
2022/04/15 02:32:16;;;;;;;11.30;4.10;;;;;;;9.40;93.50;99239.19;5095090;28;20653;-55
2022/04/15 02:34:43;;;;;;;8.63;3.90;;;;;;;9.42;93.50;99237.28;5095267;28;20213;-55
2022/04/15 02:37:10;;;;;;;8.63;3.97;;;;;;;9.38;93.82;99233.28;5095700;28;20186;-55
2022/04/15 02:39:37;;;;;;;6.60;3.90;;;;;;;9.37;94.63;99248.06;5094460;28;20192;-54
2022/04/15 02:42:04;;;;;;;5.83;3.83;;;;;;;9.36;93.86;99243.81;5095112;28;20188;-54
2022/04/15 02:44:31;;;;;;;7.57;4.07;;;;;;;9.40;94.40;99236.59;5095227;28;20205;-55
2022/04/15 02:46:58;;;;;;;8.07;3.77;;;;;;;9.37;94.70;99247.25;5095128;28;20236;-55
2022/04/15 02:49:28;;;;;;;7.00;3.80;;;;;;;9.39;95.13;99240.16;5095191;28;20208;-54
2022/04/15 02:51:55;;;;;;;5.60;3.73;;;;;;;9.35;94.87;99249.16;5094604;28;20186;-55
2022/04/15 02:54:23;;;;;;;6.77;4.00;;;;;;;9.26;95.77;99253.34;5094782;28;20207;-54
2022/04/15 02:56:50;;;;;;;7.63;3.73;;;;;;;9.25;95.41;99252.53;5095121;28;20181;-55
2022/04/15 02:59:17;;;;;;;4.20;3.70;;;;;;;9.28;94.94;99249.69;5094848;28;20242;-54
2022/04/15 03:01:45;;;;;;;4.10;3.70;;;;;;;9.25;95.64;99242.13;5094001;28;20594;-55
2022/04/15 03:04:12;;;;;;;6.47;3.80;;;;;;;9.26;96.14;99233.34;5094839;28;20275;-55
2022/04/15 03:06:41;;;;;;;7.10;3.93;;;;;;;9.29;95.78;99234.84;5094878;28;20674;-54
2022/04/15 03:09:08;;;;;;;4.87;3.73;;;;;;;9.34;96.15;99235.31;5094499;28;20657;-55
2022/04/15 03:11:37;;;;;;;8.70;3.70;;;;;;;9.26;96.68;99237.72;5093763;28;20184;-55
2022/04/15 03:14:05;;;;;;;10.10;3.90;;;;;;;9.26;96.80;99237.72;5094627;28;20273;-55
2022/04/15 03:16:32;;;;;;;5.97;4.20;;;;;;;9.21;96.79;99238.13;5094555;28;20217;-54
2022/04/15 03:18:58;;;;;;;6.63;3.63;;;;;;;9.21;96.55;99235.50;5094559;28;20289;-55
2022/04/15 03:21:25;;;;;;;6.10;4.27;;;;;;;9.25;97.76;99236.91;5093692;28;20189;-54
2022/04/15 03:23:53;;;;;;;8.30;4.13;;;;;;;9.11;97.58;99235.41;5094583;28;20279;-55
2022/04/15 03:26:21;;;;;;;6.53;4.20;;;;;;;9.09;97.54;99236.50;5094143;28;20269;-55
2022/04/15 03:28:48;;;;;;;6.47;3.93;;;;;;;9.07;98.18;99239.22;5094255;28;20182;-55
2022/04/15 03:31:15;;;;;;;7.20;4.57;;;;;;;8.95;98.53;99237.66;5093745;28;20189;-55
2022/04/15 03:33:42;;;;;;;5.73;4.07;;;;;;;9.00;100.00;99240.72;5094283;28;20185;-55
2022/04/15 03:36:09;;;;;;;6.30;4.50;;;;;;;8.98;98.98;99245.22;5093969;28;20211;-55
2022/04/15 03:38:36;;;;;;;6.23;3.83;;;;;;;8.95;99.09;99241.06;5094393;28;20193;-55
2022/04/15 03:41:04;;;;;;;11.27;4.27;;;;;;;8.96;99.84;99239.31;5093148;28;20184;-54
2022/04/15 03:43:32;;;;;;;7.23;4.53;;;;;;;9.04;100.00;99241.28;5094102;28;20185;-54
2022/04/15 03:45:58;;;;;;;4.90;4.10;;;;;;;8.97;100.00;99241.78;5093835;28;20287;-54
2022/04/15 03:48:25;;;;;;;7.67;4.03;;;;;;;8.92;100.00;99246.53;5093959;28;20196;-55
2022/04/15 03:50:53;;;;;;;7.77;4.23;;;;;;;8.85;100.00;99247.97;5092939;28;20276;-55
2022/04/15 03:53:20;;;;;;;6.67;4.57;;;;;;;8.84;100.00;99246.31;5092790;28;20536;-55
2022/04/15 03:55:47;;;;;;;6.50;4.17;;;;;;;8.77;100.00;99245.16;5093634;28;20213;-55
2022/04/15 03:58:16;;;;;;;7.73;4.30;;;;;;;8.83;100.00;99244.66;5093746;28;20191;-54
2022/04/15 04:00:43;;;;;;;7.43;4.30;;;;;;;8.93;100.00;99250.78;5092935;28;20721;-54
2022/04/15 04:03:10;;;;;;;8.53;4.47;;;;;;;8.88;100.00;99246.91;5093599;28;20195;-54
2022/04/15 04:05:37;;;;;;;7.23;4.67;;;;;;;8.83;100.00;99245.50;5093469;28;20208;-55
2022/04/15 04:08:05;;;;;;;8.13;4.40;;;;;;;8.88;100.00;99252.94;5093523;28;20219;-55
2022/04/15 04:10:33;;;;;;;11.73;4.90;;;;;;;8.82;100.00;99250.81;5092767;28;20421;-55
2022/04/15 04:13:00;;;;;;;9.27;4.87;;;;;;;8.79;100.00;99253.69;5092256;28;20677;-55
2022/04/15 04:15:29;;;;;;;9.90;4.70;;;;;;;8.78;100.00;99250.25;5093383;28;20769;-55
2022/04/15 04:17:56;;;;;;;8.23;4.60;;;;;;;8.88;100.00;99252.94;5093254;28;20185;-55
2022/04/15 04:20:24;;;;;;;6.53;4.30;;;;;;;8.94;100.00;99252.44;5092471;28;20191;-55
2022/04/15 04:22:50;;;;;;;7.67;4.67;;;;;;;8.94;100.00;99257.66;5093312;28;20192;-54
2022/04/15 04:25:17;;;;;;;5.60;4.27;;;;;;;8.92;100.00;99256.94;5093168;28;20205;-54
2022/04/15 04:27:44;;;;;;;6.17;4.47;;;;;;;8.89;100.00;99251.97;5093182;28;20753;-54
2022/04/15 04:30:13;;;;;;;10.10;4.70;;;;;;;8.82;100.00;99249.06;5092301;28;20664;-54
2022/04/15 04:32:42;;;;;;;8.10;4.40;;;;;;;8.82;100.00;99251.66;5093045;28;20178;-55
2022/04/15 04:35:09;;;;;;;9.17;4.70;;;;;;;8.81;100.00;99257.81;5092985;28;20256;-55
2022/04/15 04:37:36;;;;;;;7.17;4.70;;;;;;;8.78;100.00;99257.22;5093000;28;20172;-55
2022/04/15 04:40:03;;;;;;;7.27;4.20;;;;;;;8.83;100.00;99260.28;5090798;28;20246;-55
2022/04/15 04:42:30;;;;;;;8.07;4.73;;;;;;;8.78;100.00;99271.09;5091633;28;20194;-55
2022/04/15 04:44:58;;;;;;;10.60;4.60;;;;;;;8.78;100.00;99271.09;5092007;28;20241;-54
2022/04/15 04:47:25;;;;;;;5.80;4.13;;;;;;;8.84;100.00;99272.34;5092789;28;20215;-54
2022/04/15 04:49:55;;;;;;;5.60;4.20;;;;;;;8.79;100.00;99275.34;5092060;28;20196;-55
2022/04/15 04:52:23;;;;;;;9.07;5.00;;;;;;;8.80;100.00;99278.75;5092855;28;20211;-55
2022/04/15 04:54:50;;;;;;;7.27;4.70;;;;;;;8.77;100.00;99273.78;5092509;28;20226;-55
2022/04/15 04:57:17;;;;;;;8.33;4.77;;;;;;;8.82;100.00;99276.84;5092607;28;20239;-55
2022/04/15 04:59:44;;;;;;;7.93;4.90;;;;;;;8.84;100.00;99280.16;5091710;28;20193;-54
2022/04/15 05:02:12;;;;;;;9.10;4.90;;;;;;;8.91;100.00;99289.13;5092633;28;20184;-55
2022/04/15 05:04:40;;;;;;;6.73;4.37;;;;;;;8.95;100.00;99287.94;5092430;28;20285;-55
2022/04/15 05:07:08;;;;;;;11.53;5.00;;;;;;;8.92;100.00;99292.59;5092411;28;20210;-55
2022/04/15 05:09:35;;;;;;;6.03;4.57;;;;;;;9.03;100.00;99299.50;5092026;28;20192;-55
2022/04/15 05:12:02;;;;;;;5.93;4.53;;;;;;;9.01;100.00;99297.03;5092238;28;20199;-55
2022/04/15 05:14:29;;;;;;;9.83;5.30;;;;;;;9.10;100.00;99295.47;5092420;28;20211;-55
2022/04/15 05:16:56;;;;;;;6.50;4.60;;;;;;;9.20;100.00;99296.38;5092376;28;20185;-55
2022/04/15 05:19:22;;;;;;;9.27;5.10;;;;;;;9.18;100.00;99297.44;5092232;28;20237;-55
2022/04/15 05:21:50;;;;;;;8.53;5.10;;;;;;;9.21;100.00;99303.22;5091415;28;20565;-55
2022/04/15 05:24:18;;;;;;;8.43;4.97;;;;;;;9.22;100.00;99306.66;5092907;28;20240;-55
2022/04/15 05:26:45;;;;;;;8.13;4.83;;;;;;;9.28;100.00;99304.38;5091993;28;20250;-55
2022/04/15 05:29:12;;;;;;;10.80;5.40;;;;;;;9.34;100.00;99318.69;5092220;28;20717;-55
2022/04/15 05:31:38;;;;;;;6.80;4.90;;;;;;;9.48;100.00;99314.13;5091330;28;20196;-55
2022/04/15 05:34:05;;;;;;;6.80;4.30;;;;;;;9.51;100.00;99308.66;5091982;28;20184;-55
2022/04/15 05:36:32;;;;;;;7.43;4.70;;;;;;;9.59;100.00;99324.47;5092061;28;20189;-54
2022/04/15 05:38:59;;;;;;;7.83;4.90;;;;;;;9.73;100.00;99331.13;5092015;28;20199;-55
2022/04/15 05:41:28;;;;;;;9.50;5.40;;;;;;;9.87;100.00;99315.16;5091131;28;20579;-55
2022/04/15 05:43:57;;;;;;;10.97;4.97;;;;;;;9.94;100.00;99314.66;5090690;28;20232;-54
2022/04/15 05:46:24;;;;;;;13.70;5.30;;;;;;;10.08;100.00;99326.50;5092129;28;20178;-54
2022/04/15 05:48:51;;;;;;;8.63;5.50;;;;;;;10.18;100.00;99325.63;5091904;28;20185;-55
2022/04/15 05:51:19;;;;;;;8.07;4.47;;;;;;;10.29;100.00;99324.69;5091060;28;20737;-55
2022/04/15 05:53:45;;;;;;;8.83;4.87;;;;;;;10.39;100.00;99335.22;5091974;28;20489;-55
2022/04/15 05:56:12;;;;;;;8.50;4.80;;;;;;;10.52;100.00;99328.94;5093052;28;20213;-55
2022/04/15 05:58:40;;;;;;;11.17;4.60;;;;;;;10.67;99.49;99327.56;5096219;28;20190;-55
2022/04/15 06:01:09;;;;;;;10.75;4.72;;;;;;;10.80;98.56;99327.34;5095003;28;20424;-51
2022/04/15 06:03:37;;;;;;;8.30;4.80;;;;;;;10.92;97.82;99328.88;5095945;28;20245;-51
2022/04/15 06:06:04;;;;;;;8.83;6.57;;;;;;;11.02;97.94;99339.31;5095777;28;20685;-50
2022/04/15 06:08:31;;;;;;;9.33;5.60;;;;;;;11.16;96.84;99335.47;5095745;28;20213;-51
2022/04/15 06:10:59;;;;;;;8.67;4.40;;;;;;;11.28;97.23;99336.16;5094989;28;20719;-49
2022/04/15 06:13:26;;;;;;;9.80;4.50;;;;;;;11.44;96.14;99340.03;5095816;28;20178;-52
2022/04/15 06:15:56;;;;;;;8.37;4.00;;;;;;;11.57;95.98;99342.34;5095950;28;20206;-52
2022/04/15 06:18:24;;;;;;;6.40;4.53;;;;;;;11.74;94.53;99338.16;5095605;28;20593;-50
2022/04/15 06:20:51;;;;;;;6.63;4.17;;;;;;;11.89;94.34;99344.63;5093311;28;20534;-50
2022/04/15 06:23:20;;;;;;;7.97;4.50;;;;;;;12.04;93.72;99346.81;5095688;28;20220;-51
2022/04/15 06:25:47;;;;;;;5.83;4.33;;;;;;;12.17;93.88;99339.47;5095557;28;20299;-51
2022/04/15 06:28:14;;;;;;;8.20;4.70;;;;;;;12.29;94.37;99342.72;5095463;28;20211;-50
2022/04/15 06:30:42;;;;;;;8.93;4.43;;;;;;;12.44;94.18;99340.47;5094713;28;20673;-51
2022/04/15 06:33:10;;;;;;;6.77;4.47;;;;;;;12.58;93.35;99344.38;5095380;28;20650;-50
2022/04/15 06:35:39;;;;;;;6.83;4.63;;;;;;;12.69;93.35;99346.00;5095171;28;20695;-51
2022/04/15 06:38:06;;;;;;;7.60;4.53;;;;;;;12.80;93.27;99347.56;5095280;28;20188;-51
2022/04/15 06:40:33;;;;;;;9.17;4.43;;;;;;;12.97;92.43;99343.31;5094464;28;20272;-51
2022/04/15 06:43:00;;;;;;;7.93;4.03;;;;;;;13.10;91.60;99343.78;5095301;28;20689;-51
2022/04/15 06:45:28;;;;;;;8.43;4.80;;;;;;;13.26;89.84;99345.72;5093814;28;20221;-51
2022/04/15 06:47:55;;;;;;;8.03;6.17;;;;;;;13.39;87.66;99347.13;5094838;28;20282;-51
2022/04/15 06:50:24;;;;;;;8.83;6.33;;;;;;;13.55;86.99;99360.41;5094170;28;20214;-52
2022/04/15 06:52:51;;;;;;;8.00;5.20;;;;;;;13.66;85.88;99359.34;5094983;28;20207;-50
2022/04/15 06:55:18;;;;;;;8.20;5.20;;;;;;;13.81;85.56;99356.16;5094815;28;20214;-51
2022/04/15 06:57:44;;;;;;;6.23;5.10;;;;;;;13.96;84.81;99356.44;5094999;28;20230;-51
2022/04/15 07:00:13;;;;;;;7.47;4.90;;;;;;;14.10;83.07;99362.91;5094109;28;20184;-52
2022/04/15 07:02:41;;;;;;;7.33;5.93;;;;;;;14.14;79.34;99359.00;5094719;28;20282;-51
2022/04/15 07:05:09;;;;;;;22.90;14.30;;;;;;;14.28;80.31;99363.66;5094899;28;20211;-51
2022/04/15 07:07:37;;;;;;;11.50;7.90;;;;;;;14.39;80.02;99364.38;5094142;28;20200;-52
2022/04/15 07:10:05;;;;;;;10.17;6.97;;;;;;;14.59;79.02;99364.94;5093899;28;20724;-52
2022/04/15 07:12:33;;;;;;;11.87;8.03;;;;;;;14.75;75.11;99370.28;5094720;28;20203;-51
2022/04/15 07:15:00;;;;;;;12.00;7.23;;;;;;;14.69;76.68;99370.06;5094404;28;20304;-52
2022/04/15 07:17:26;;;;;;;14.83;9.13;;;;;;;14.66;76.07;99375.66;5094808;28;20233;-52
2022/04/15 07:19:53;;;;;;;13.37;8.87;;;;;;;14.66;75.86;99378.28;5093763;28;20227;-52
2022/04/15 07:22:21;;;;;;;13.37;8.73;;;;;;;14.62;75.09;99369.88;5094603;28;20583;-52
2022/04/15 07:24:50;;;;;;;14.93;10.27;;;;;;;14.50;74.93;99377.22;5094429;28;20215;-51
2022/04/15 07:27:17;;;;;;;17.73;10.57;;;;;;;14.55;75.50;99376.75;5094325;28;20265;-52
2022/04/15 07:29:45;;;;;;;15.30;10.60;;;;;;;14.59;76.49;99376.28;5093363;28;20199;-50
2022/04/15 07:32:13;;;;;;;13.60;9.37;;;;;;;14.81;75.59;99381.13;5094011;28;20675;-51
2022/04/15 07:34:40;;;;;;;14.13;9.50;;;;;;;15.02;74.04;99385.94;5094141;28;20212;-52
2022/04/15 07:37:07;;;;;;;13.13;9.53;;;;;;;15.00;71.88;99386.13;5094266;28;20200;-52
2022/04/15 07:39:34;;;;;;;16.87;10.43;;;;;;;14.65;74.03;99385.31;5093746;28;20192;-52
2022/04/15 07:42:02;;;;;;;12.13;9.37;;;;;;;14.91;73.24;99385.25;5093892;28;20192;-51
2022/04/15 07:44:30;;;;;;;15.27;9.10;;;;;;;14.71;74.74;99389.97;5094020;28;20211;-51
2022/04/15 07:46:57;;;;;;;13.33;9.80;;;;;;;14.78;73.82;99381.44;5094195;28;20651;-52
2022/04/15 07:49:23;;;;;;;14.83;9.53;;;;;;;14.97;73.89;99389.06;5094040;28;20188;-51
2022/04/15 07:51:50;;;;;;;16.33;9.57;;;;;;;14.99;73.81;99388.91;5091926;28;20188;-52
2022/04/15 07:56:52;;;;;;;16.33;11.07;;;;;;;15.31;71.89;99384.69;5071680;28;20235;-55
2022/04/15 07:59:20;;;;;;;15.07;10.50;;;;;;;15.26;73.42;99390.44;5073481;28;20584;-56
2022/04/15 08:01:47;;;;;;;16.40;10.60;;;;;;;15.32;73.82;99386.34;5072769;28;20180;-55
2022/04/15 08:04:14;;;;;;;14.80;10.47;;;;;;;15.47;73.31;99391.75;5073485;28;20189;-56
2022/04/15 08:06:41;;;;;;;16.20;11.17;;;;;;;15.26;73.71;99382.56;5093563;28;20207;-55
2022/04/15 08:09:07;;;;;;;14.97;10.63;;;;;;;15.46;73.86;99379.59;5093414;28;20201;-55
2022/04/15 08:11:34;;;;;;;15.50;11.57;;;;;;;15.35;74.16;99386.84;5092708;28;20200;-54
2022/04/15 08:14:01;;;;;;;18.70;11.77;;;;;;;15.40;74.18;99386.34;5093521;28;20184;-54
2022/04/15 08:16:29;;;;;;;15.70;12.40;;;;;;;15.63;73.57;99397.03;5093454;28;20257;-55
2022/04/15 08:18:56;;;;;;;21.00;15.50;;;;;;;15.59;71.61;99387.81;5092445;28;20179;-54
2022/04/15 08:21:24;;;;;;;20.83;14.63;;;;;;;15.79;71.14;99395.38;5092546;28;20189;-54
2022/04/15 08:23:50;;;;;;;25.13;15.63;;;;;;;15.70;71.79;99397.22;5093533;28;20193;-54
2022/04/15 08:26:17;;;;;;;27.50;18.87;;;;;;;15.58;70.87;99386.19;5093218;28;20213;-54
2022/04/15 08:28:44;;;;;;;23.33;18.27;;;;;;;15.52;71.51;99393.91;5093116;28;20228;-54
2022/04/15 08:31:11;;;;;;;28.40;18.80;;;;;;;15.41;71.66;99395.88;5092688;28;20197;-54
2022/04/15 08:33:40;;;;;;;25.43;18.60;;;;;;;15.56;71.90;99398.66;5093072;28;20183;-55
2022/04/15 08:36:07;;;;;;;26.77;18.97;;;;;;;15.67;71.00;99392.28;5092807;28;20205;-54
2022/04/15 08:38:34;;;;;;;25.53;17.80;;;;;;;15.89;71.03;99387.34;5092982;28;20222;-54
2022/04/15 08:41:01;;;;;;;29.57;18.67;;;;;;;15.91;69.48;99398.50;5092157;28;20646;-55
2022/04/15 08:43:29;;;;;;;24.93;17.57;;;;;;;16.32;67.87;99403.72;5092944;28;20189;-55
2022/04/15 08:45:56;;;;;;;26.67;20.20;;;;;;;16.19;68.74;99404.25;5092876;28;20280;-54
2022/04/15 08:48:25;;;;;;;29.00;18.50;;;;;;;16.28;68.83;99410.31;5092707;28;20251;-53
2022/04/15 08:50:54;;;;;;;25.03;19.07;;;;;;;16.29;67.96;99404.06;5091821;28;20250;-55
2022/04/15 08:53:22;;;;;;;28.87;18.83;;;;;;;16.55;67.05;99402.16;5092715;28;20570;-54
2022/04/15 08:55:49;;;;;;;24.47;18.43;;;;;;;16.60;67.91;99413.00;5092686;28;20785;-55
2022/04/15 08:58:16;;;;;;;24.27;17.80;;;;;;;16.84;66.33;99404.19;5092780;28;20182;-55
2022/04/15 09:00:42;;;;;;;25.37;17.00;;;;;;;17.17;62.31;99406.66;5091831;28;20182;-55
2022/04/15 09:03:09;;;;;;;20.30;15.20;;;;;;;17.25;61.21;99414.50;5092594;28;20194;-55
2022/04/15 09:05:36;;;;;;;20.57;14.10;;;;;;;17.47;56.82;99417.34;5092450;28;20312;-54
2022/04/15 09:08:06;;;;;;;18.17;12.40;;;;;;;17.64;57.54;99418.03;5092577;28;20206;-55
2022/04/15 09:10:34;;;;;;;23.83;16.37;;;;;;;17.96;59.68;99418.75;5091744;28;20180;-55
2022/04/15 09:13:03;;;;;;;19.67;14.03;;;;;;;17.71;56.39;99415.50;5092387;28;20226;-55
2022/04/15 09:15:30;;;;;;;16.50;13.17;;;;;;;17.79;57.86;99419.88;5092388;28;20198;-55
2022/04/15 09:17:59;;;;;;;19.80;14.00;;;;;;;17.47;56.49;99422.63;5092395;28;20878;-54
2022/04/15 09:20:31;;;;;;;17.27;13.20;;;;;;;18.05;56.30;99419.50;5091533;28;20187;-55
2022/04/15 09:22:58;;;;;;;21.83;13.70;;;;;;;18.07;55.31;99420.16;5092334;28;20554;-55
2022/04/15 09:25:29;;;;;;;18.70;14.00;;;;;;;18.11;55.68;99424.06;5092282;28;20208;-54
2022/04/15 09:27:58;;;;;;;15.77;12.53;;;;;;;18.53;55.10;99431.56;5092136;28;20198;-55
2022/04/15 09:30:36;;;;;;;16.03;11.63;;;;;;;18.83;54.79;99432.38;5090900;28;20183;-55
2022/04/15 09:33:04;;;;;;;19.23;14.30;;;;;;;18.67;54.05;99432.56;5092055;28;20179;-55
2022/04/15 09:35:31;;;;;;;16.50;11.53;;;;;;;18.70;54.36;99437.47;5092096;28;20222;-55
2022/04/15 09:38:03;;;;;;;17.47;14.17;;;;;;;18.58;53.35;99440.59;5092196;28;20190;-55
2022/04/15 09:40:35;;;;;;;16.87;14.03;;;;;;;18.51;54.17;99438.88;5091500;28;20187;-55
2022/04/15 09:43:04;;;;;;;18.37;13.47;;;;;;;18.88;53.60;99442.41;5092063;28;20190;-55
2022/04/15 09:45:34;;;;;;;18.00;14.47;;;;;;;18.57;54.45;99433.66;5091942;28;20226;-55
2022/04/15 09:48:03;;;;;;;22.57;15.10;;;;;;;18.72;52.41;99446.88;5091887;28;20209;-55
2022/04/15 09:50:34;;;;;;;19.43;14.10;;;;;;;18.14;53.73;99444.03;5091130;28;20193;-55
2022/04/15 09:53:12;;;;;;;22.03;14.83;;;;;;;18.44;53.53;99439.59;5092031;28;20179;-55
2022/04/15 09:55:41;;;;;;;22.63;15.70;;;;;;;18.35;53.27;99432.75;5091777;28;20582;-55
2022/04/15 09:58:10;;;;;;;18.87;13.47;;;;;;;18.28;53.57;99434.47;5092081;28;20214;-55
2022/04/15 10:00:38;;;;;;;21.10;14.07;;;;;;;18.52;53.84;99433.41;5091033;28;20194;-55
2022/04/15 10:03:08;;;;;;;19.70;13.93;;;;;;;18.76;53.11;99433.31;5091745;28;20191;-55
2022/04/15 10:05:36;;;;;;;19.20;13.77;;;;;;;18.88;51.92;99434.47;5091600;28;20203;-55
2022/04/15 10:08:04;;;;;;;21.40;14.40;;;;;;;19.00;51.77;99432.19;5091729;28;20203;-55
2022/04/15 10:10:31;;;;;;;17.97;13.83;;;;;;;18.88;51.56;99431.81;5090987;28;20267;-55
2022/04/15 10:13:03;;;;;;;18.77;14.97;;;;;;;19.24;50.18;99432.84;5091955;28;20187;-55
2022/04/15 10:15:32;;;;;;;18.27;14.30;;;;;;;19.12;49.92;99429.88;5091658;28;20717;-55
2022/04/15 10:18:00;;;;;;;18.13;12.77;;;;;;;19.32;50.66;99430.09;5092186;28;20185;-55
2022/04/15 10:20:27;;;;;;;18.83;12.20;;;;;;;19.62;50.11;99433.44;5090706;28;20290;-55
2022/04/15 10:22:56;;;;;;;18.07;12.67;;;;;;;19.54;50.38;99430.09;5091779;28;20187;-55
2022/04/15 10:25:23;;;;;;;16.47;12.10;;;;;;;19.25;49.12;99435.31;5091613;28;20227;-55
2022/04/15 10:27:51;;;;;;;15.60;12.37;;;;;;;19.15;49.24;99434.78;5091605;28;20183;-55
2022/04/15 10:30:20;;;;;;;15.37;11.43;;;;;;;19.12;49.35;99429.88;5090780;28;20223;-55
2022/04/15 10:32:49;;;;;;;16.27;11.87;;;;;;;19.39;49.17;99435.44;5091454;28;20184;-55
2022/04/15 10:35:26;;;;;;;16.80;11.20;;;;;;;19.30;50.26;99442.69;5091451;28;20209;-55
2022/04/15 10:37:59;;;;;;;19.17;14.03;;;;;;;19.25;49.52;99431.84;5091617;28;20183;-55
2022/04/15 10:40:29;;;;;;;14.10;10.43;;;;;;;19.07;49.75;99437.56;5090738;28;20192;-55
2022/04/15 10:43:03;;;;;;;15.43;10.67;;;;;;;19.52;47.71;99434.75;5092389;28;20198;-55
2022/04/15 10:45:35;;;;;;;14.50;8.90;;;;;;;19.76;48.38;99430.91;5095080;28;20701;-55
2022/04/15 10:48:04;;;;;;;12.87;9.73;;;;;;;20.06;48.64;99431.56;5095165;28;20262;-55
2022/04/15 10:50:33;;;;;;;12.33;9.83;;;;;;;20.24;48.54;99434.72;5094316;28;20213;-55
2022/04/15 10:53:19;;;;;;;15.73;10.57;;;;;;;20.35;46.92;99432.38;5095213;28;20375;-55
2022/04/15 10:55:48;;;;;;;11.77;9.30;;;;;;;19.99;45.62;99427.25;5094638;28;20226;-55
2022/04/15 10:58:17;;;;;;;15.13;9.87;;;;;;;19.63;46.50;99436.88;5095024;28;20183;-55
2022/04/15 11:03:32;;;;;;;12.30;7.60;;;;;;;19.94;47.30;99435.75;5095235;28;20650;-55
2022/04/15 11:06:02;;;;;;;19.17;12.67;;;;;;;19.91;48.08;99428.19;5094690;28;20293;-55
2022/04/15 11:08:45;;;;;;;15.23;11.73;;;;;;;19.80;47.95;99423.38;5094771;28;20243;-55
2022/04/15 11:11:12;;;;;;;17.97;12.67;;;;;;;19.58;50.16;99431.38;5093911;28;20181;-55
2022/04/15 11:14:00;;;;;;;19.07;13.20;;;;;;;19.40;49.21;99437.91;5094667;28;20196;-55
2022/04/15 11:16:44;;;;;;;15.73;12.07;;;;;;;19.31;51.02;99426.59;5094469;28;20204;-55
2022/04/15 11:19:14;;;;;;;21.87;15.27;;;;;;;19.07;51.20;99430.44;5094538;28;20180;-55
2022/04/15 11:21:41;;;;;;;18.70;13.67;;;;;;;19.09;52.64;99422.28;5093704;28;20666;-55
2022/04/15 11:24:09;;;;;;;19.30;12.67;;;;;;;19.35;50.71;99428.88;5094446;28;20278;-55
2022/04/15 11:26:38;;;;;;;18.63;12.93;;;;;;;19.23;49.90;99428.56;5094348;28;20208;-55
2022/04/15 11:29:06;;;;;;;19.13;12.90;;;;;;;19.55;51.12;99418.50;5094175;28;20215;-55
2022/04/15 11:31:35;;;;;;;19.00;12.23;;;;;;;19.44;47.76;99422.47;5093499;28;20194;-55
2022/04/15 11:34:08;;;;;;;19.73;11.43;;;;;;;19.35;47.59;99415.66;5094328;28;20243;-55
2022/04/15 11:36:37;;;;;;;13.07;10.13;;;;;;;19.27;47.18;99406.81;5094279;28;20200;-56
2022/04/15 11:39:05;;;;;;;17.13;9.90;;;;;;;19.26;47.66;99409.66;5094310;28;20194;-55